sensor_id;sensor_type;location;lat;lon;timestamp;P1;durP1;ratioP1;P2;durP2;ratioP2
55346;SDS011;41218;55.700;38.270;2023-01-19T00:01:35;28.50;;;9.40;;
55346;SDS011;41218;55.700;38.270;2023-01-19T00:06:35;25.63;;;9.60;;
55346;SDS011;41218;55.700;38.270;2023-01-19T00:11:36;30.03;;;10.60;;
55346;SDS011;41218;55.700;38.270;2023-01-19T00:16:36;27.65;;;9.50;;
55346;SDS011;41218;55.700;38.270;2023-01-19T00:21:38;30.10;;;10.25;;
55346;SDS011;41218;55.700;38.270;2023-01-19T00:26:38;33.37;;;11.10;;
55346;SDS011;41218;55.700;38.270;2023-01-19T00:31:41;24.15;;;9.70;;
55346;SDS011;41218;55.700;38.270;2023-01-19T00:36:42;31.43;;;10.87;;
55346;SDS011;41218;55.700;38.270;2023-01-19T00:41:42;28.13;;;11.07;;
55346;SDS011;41218;55.700;38.270;2023-01-19T00:47:02;29.10;;;9.52;;
55346;SDS011;41218;55.700;38.270;2023-01-19T00:52:04;28.73;;;10.65;;
55346;SDS011;41218;55.700;38.270;2023-01-19T00:57:05;39.08;;;11.68;;
55346;SDS011;41218;55.700;38.270;2023-01-19T01:02:06;23.63;;;9.47;;
55346;SDS011;41218;55.700;38.270;2023-01-19T01:07:06;23.53;;;9.07;;
55346;SDS011;41218;55.700;38.270;2023-01-19T01:12:07;21.03;;;8.37;;
55346;SDS011;41218;55.700;38.270;2023-01-19T01:17:07;22.80;;;7.93;;
55346;SDS011;41218;55.700;38.270;2023-01-19T01:22:10;20.00;;;7.25;;
55346;SDS011;41218;55.700;38.270;2023-01-19T01:27:11;24.27;;;8.73;;
55346;SDS011;41218;55.700;38.270;2023-01-19T01:32:12;25.23;;;9.55;;
55346;SDS011;41218;55.700;38.270;2023-01-19T01:37:13;28.25;;;9.70;;
55346;SDS011;41218;55.700;38.270;2023-01-19T01:42:18;24.53;;;9.97;;
55346;SDS011;41218;55.700;38.270;2023-01-19T01:52:24;28.60;;;9.95;;
55346;SDS011;41218;55.700;38.270;2023-01-19T01:57:27;23.35;;;10.18;;
55346;SDS011;41218;55.700;38.270;2023-01-19T02:13:29;32.13;;;9.95;;
55346;SDS011;41218;55.700;38.270;2023-01-19T02:23:38;28.57;;;9.23;;
55346;SDS011;41218;55.700;38.270;2023-01-19T02:28:41;20.50;;;8.10;;
55346;SDS011;41218;55.700;38.270;2023-01-19T02:33:45;23.30;;;8.18;;
55346;SDS011;41218;55.700;38.270;2023-01-19T02:38:46;25.60;;;8.17;;
55346;SDS011;41218;55.700;38.270;2023-01-19T02:43:48;21.38;;;7.60;;
55346;SDS011;41218;55.700;38.270;2023-01-19T02:48:50;24.85;;;7.93;;
55346;SDS011;41218;55.700;38.270;2023-01-19T02:59:21;27.77;;;7.82;;
55346;SDS011;41218;55.700;38.270;2023-01-19T03:04:48;17.60;;;7.00;;
55346;SDS011;41218;55.700;38.270;2023-01-19T03:15:09;21.95;;;7.13;;
55346;SDS011;41218;55.700;38.270;2023-01-19T03:20:17;22.03;;;7.13;;
55346;SDS011;41218;55.700;38.270;2023-01-19T03:25:22;17.05;;;6.68;;
55346;SDS011;41218;55.700;38.270;2023-01-19T03:30:25;17.33;;;6.95;;
55346;SDS011;41218;55.700;38.270;2023-01-19T03:35:32;19.35;;;6.80;;
55346;SDS011;41218;55.700;38.270;2023-01-19T03:40:35;15.70;;;6.13;;
55346;SDS011;41218;55.700;38.270;2023-01-19T03:45:37;15.30;;;6.03;;
55346;SDS011;41218;55.700;38.270;2023-01-19T03:50:38;13.60;;;5.93;;
55346;SDS011;41218;55.700;38.270;2023-01-19T03:55:40;19.67;;;7.33;;
55346;SDS011;41218;55.700;38.270;2023-01-19T04:00:44;14.25;;;5.53;;
55346;SDS011;41218;55.700;38.270;2023-01-19T04:05:44;18.87;;;6.47;;
55346;SDS011;41218;55.700;38.270;2023-01-19T04:10:45;14.95;;;6.28;;
55346;SDS011;41218;55.700;38.270;2023-01-19T04:15:45;17.73;;;6.00;;
55346;SDS011;41218;55.700;38.270;2023-01-19T04:20:46;27.33;;;6.97;;
55346;SDS011;41218;55.700;38.270;2023-01-19T04:25:47;19.47;;;7.13;;
55346;SDS011;41218;55.700;38.270;2023-01-19T04:30:50;23.53;;;7.43;;
55346;SDS011;41218;55.700;38.270;2023-01-19T04:35:51;17.63;;;7.05;;
55346;SDS011;41218;55.700;38.270;2023-01-19T04:40:55;20.45;;;6.97;;
55346;SDS011;41218;55.700;38.270;2023-01-19T04:45:56;16.52;;;7.15;;
55346;SDS011;41218;55.700;38.270;2023-01-19T04:50:56;21.85;;;7.30;;
55346;SDS011;41218;55.700;38.270;2023-01-19T04:55:57;21.77;;;6.87;;
55346;SDS011;41218;55.700;38.270;2023-01-19T05:05:59;14.33;;;5.87;;
55346;SDS011;41218;55.700;38.270;2023-01-19T05:11:00;19.57;;;6.50;;
55346;SDS011;41218;55.700;38.270;2023-01-19T05:16:00;14.60;;;6.37;;
55346;SDS011;41218;55.700;38.270;2023-01-19T05:21:04;16.83;;;6.03;;
55346;SDS011;41218;55.700;38.270;2023-01-19T05:26:05;16.77;;;6.78;;
55346;SDS011;41218;55.700;38.270;2023-01-19T05:31:06;13.30;;;5.60;;
55346;SDS011;41218;55.700;38.270;2023-01-19T05:36:07;16.13;;;6.97;;
55346;SDS011;41218;55.700;38.270;2023-01-19T05:41:07;21.17;;;6.37;;
55346;SDS011;41218;55.700;38.270;2023-01-19T05:46:08;15.13;;;6.10;;
55346;SDS011;41218;55.700;38.270;2023-01-19T05:51:08;19.38;;;6.53;;
55346;SDS011;41218;55.700;38.270;2023-01-19T05:56:09;19.40;;;6.75;;
55346;SDS011;41218;55.700;38.270;2023-01-19T06:01:10;17.75;;;7.30;;
55346;SDS011;41218;55.700;38.270;2023-01-19T06:06:11;16.87;;;6.63;;
55346;SDS011;41218;55.700;38.270;2023-01-19T06:11:14;21.90;;;7.47;;
55346;SDS011;41218;55.700;38.270;2023-01-19T06:16:14;19.83;;;7.47;;
55346;SDS011;41218;55.700;38.270;2023-01-19T06:21:15;17.47;;;7.60;;
55346;SDS011;41218;55.700;38.270;2023-01-19T06:26:15;19.50;;;7.77;;
55346;SDS011;41218;55.700;38.270;2023-01-19T06:31:15;17.37;;;6.90;;
55346;SDS011;41218;55.700;38.270;2023-01-19T06:36:16;23.00;;;7.80;;
55346;SDS011;41218;55.700;38.270;2023-01-19T06:41:16;24.23;;;7.70;;
55346;SDS011;41218;55.700;38.270;2023-01-19T06:46:17;19.30;;;7.43;;
55346;SDS011;41218;55.700;38.270;2023-01-19T06:51:17;20.63;;;7.77;;
55346;SDS011;41218;55.700;38.270;2023-01-19T06:56:18;20.90;;;7.90;;
55346;SDS011;41218;55.700;38.270;2023-01-19T07:01:18;26.73;;;8.93;;
55346;SDS011;41218;55.700;38.270;2023-01-19T07:06:19;22.23;;;7.77;;
55346;SDS011;41218;55.700;38.270;2023-01-19T07:11:19;25.60;;;8.67;;
55346;SDS011;41218;55.700;38.270;2023-01-19T07:16:20;21.53;;;8.30;;
55346;SDS011;41218;55.700;38.270;2023-01-19T07:21:20;21.10;;;8.63;;
55346;SDS011;41218;55.700;38.270;2023-01-19T07:26:21;29.33;;;8.63;;
55346;SDS011;41218;55.700;38.270;2023-01-19T07:31:24;19.75;;;7.88;;
55346;SDS011;41218;55.700;38.270;2023-01-19T07:36:24;24.70;;;8.23;;
55346;SDS011;41218;55.700;38.270;2023-01-19T07:41:25;25.73;;;8.77;;
55346;SDS011;41218;55.700;38.270;2023-01-19T07:46:25;23.60;;;8.87;;
55346;SDS011;41218;55.700;38.270;2023-01-19T07:51:26;27.57;;;8.87;;
55346;SDS011;41218;55.700;38.270;2023-01-19T07:56:26;22.05;;;7.95;;
55346;SDS011;41218;55.700;38.270;2023-01-19T08:01:29;25.75;;;8.80;;
55346;SDS011;41218;55.700;38.270;2023-01-19T08:06:32;23.65;;;9.02;;
55346;SDS011;41218;55.700;38.270;2023-01-19T08:11:34;23.92;;;9.27;;
55346;SDS011;41218;55.700;38.270;2023-01-19T08:16:35;27.53;;;8.63;;
55346;SDS011;41218;55.700;38.270;2023-01-19T08:21:35;22.27;;;8.63;;
55346;SDS011;41218;55.700;38.270;2023-01-19T08:26:37;24.73;;;8.57;;
55346;SDS011;41218;55.700;38.270;2023-01-19T08:31:38;20.13;;;7.97;;
55346;SDS011;41218;55.700;38.270;2023-01-19T08:36:38;21.47;;;8.33;;
55346;SDS011;41218;55.700;38.270;2023-01-19T08:41:39;20.47;;;8.47;;
55346;SDS011;41218;55.700;38.270;2023-01-19T08:46:40;34.77;;;8.47;;
55346;SDS011;41218;55.700;38.270;2023-01-19T08:51:40;24.27;;;7.77;;
55346;SDS011;41218;55.700;38.270;2023-01-19T08:56:41;29.57;;;8.77;;
55346;SDS011;41218;55.700;38.270;2023-01-19T09:01:42;20.20;;;8.23;;
55346;SDS011;41218;55.700;38.270;2023-01-19T09:06:42;20.40;;;8.20;;
55346;SDS011;41218;55.700;38.270;2023-01-19T09:11:43;19.53;;;7.83;;
55346;SDS011;41218;55.700;38.270;2023-01-19T09:16:43;25.37;;;9.13;;
55346;SDS011;41218;55.700;38.270;2023-01-19T09:21:44;30.80;;;8.77;;
55346;SDS011;41218;55.700;38.270;2023-01-19T09:26:44;26.23;;;8.47;;
55346;SDS011;41218;55.700;38.270;2023-01-19T09:31:45;11.80;;;5.03;;
55346;SDS011;41218;55.700;38.270;2023-01-19T09:36:45;29.93;;;9.43;;
55346;SDS011;41218;55.700;38.270;2023-01-19T09:41:48;23.10;;;8.18;;
55346;SDS011;41218;55.700;38.270;2023-01-19T09:47:14;29.70;;;9.07;;
55346;SDS011;41218;55.700;38.270;2023-01-19T09:52:19;27.52;;;9.13;;
55346;SDS011;41218;55.700;38.270;2023-01-19T09:57:23;27.88;;;10.15;;
55346;SDS011;41218;55.700;38.270;2023-01-19T10:02:35;28.08;;;8.95;;
55346;SDS011;41218;55.700;38.270;2023-01-19T10:13:01;28.95;;;10.20;;
55346;SDS011;41218;55.700;38.270;2023-01-19T10:23:38;30.67;;;9.32;;
55346;SDS011;41218;55.700;38.270;2023-01-19T10:28:43;28.42;;;9.73;;
55346;SDS011;41218;55.700;38.270;2023-01-19T10:33:46;23.92;;;9.30;;
55346;SDS011;41218;55.700;38.270;2023-01-19T10:38:48;21.35;;;8.65;;
55346;SDS011;41218;55.700;38.270;2023-01-19T10:43:53;25.58;;;8.63;;
55346;SDS011;41218;55.700;38.270;2023-01-19T10:48:58;27.27;;;9.50;;
55346;SDS011;41218;55.700;38.270;2023-01-19T10:54:00;24.43;;;9.53;;
55346;SDS011;41218;55.700;38.270;2023-01-19T10:59:03;27.45;;;9.75;;
55346;SDS011;41218;55.700;38.270;2023-01-19T11:04:27;27.42;;;9.93;;
55346;SDS011;41218;55.700;38.270;2023-01-19T11:09:28;32.60;;;9.95;;
55346;SDS011;41218;55.700;38.270;2023-01-19T11:14:29;36.03;;;10.27;;
55346;SDS011;41218;55.700;38.270;2023-01-19T11:19:31;29.88;;;11.18;;
55346;SDS011;41218;55.700;38.270;2023-01-19T11:24:32;38.42;;;9.90;;
55346;SDS011;41218;55.700;38.270;2023-01-19T11:29:36;31.90;;;10.50;;
55346;SDS011;41218;55.700;38.270;2023-01-19T11:34:38;35.30;;;9.90;;
55346;SDS011;41218;55.700;38.270;2023-01-19T11:39:45;37.57;;;11.03;;
55346;SDS011;41218;55.700;38.270;2023-01-19T11:55:41;30.95;;;11.07;;
55346;SDS011;41218;55.700;38.270;2023-01-19T12:00:51;34.42;;;10.68;;
55346;SDS011;41218;55.700;38.270;2023-01-19T12:06:00;36.80;;;10.88;;
55346;SDS011;41218;55.700;38.270;2023-01-19T12:11:06;30.77;;;10.73;;
55346;SDS011;41218;55.700;38.270;2023-01-19T12:16:12;28.15;;;10.55;;
55346;SDS011;41218;55.700;38.270;2023-01-19T12:21:19;32.33;;;11.02;;
55346;SDS011;41218;55.700;38.270;2023-01-19T12:31:29;35.47;;;11.68;;
55346;SDS011;41218;55.700;38.270;2023-01-19T12:41:37;27.15;;;9.63;;
55346;SDS011;41218;55.700;38.270;2023-01-19T12:46:49;38.15;;;11.00;;
55346;SDS011;41218;55.700;38.270;2023-01-19T12:51:54;34.70;;;11.07;;
55346;SDS011;41218;55.700;38.270;2023-01-19T12:57:37;29.58;;;10.93;;
55346;SDS011;41218;55.700;38.270;2023-01-19T13:02:41;31.08;;;10.95;;
55346;SDS011;41218;55.700;38.270;2023-01-19T13:13:14;27.20;;;11.18;;
55346;SDS011;41218;55.700;38.270;2023-01-19T13:18:18;35.80;;;11.93;;
55346;SDS011;41218;55.700;38.270;2023-01-19T13:23:22;29.33;;;11.18;;
55346;SDS011;41218;55.700;38.270;2023-01-19T13:28:43;38.40;;;12.50;;
55346;SDS011;41218;55.700;38.270;2023-01-19T13:33:49;31.58;;;10.90;;
55346;SDS011;41218;55.700;38.270;2023-01-19T13:38:52;36.92;;;11.40;;
55346;SDS011;41218;55.700;38.270;2023-01-19T13:44:01;29.98;;;9.20;;
55346;SDS011;41218;55.700;38.270;2023-01-19T13:49:27;32.97;;;10.23;;
55346;SDS011;41218;55.700;38.270;2023-01-19T13:54:30;29.90;;;9.88;;
55346;SDS011;41218;55.700;38.270;2023-01-19T13:59:31;29.20;;;10.70;;
55346;SDS011;41218;55.700;38.270;2023-01-19T14:04:32;37.10;;;10.63;;
55346;SDS011;41218;55.700;38.270;2023-01-19T14:14:33;28.70;;;10.27;;
55346;SDS011;41218;55.700;38.270;2023-01-19T14:19:46;32.23;;;11.63;;
55346;SDS011;41218;55.700;38.270;2023-01-19T14:24:48;32.10;;;10.20;;
55346;SDS011;41218;55.700;38.270;2023-01-19T14:29:49;25.57;;;9.73;;
55346;SDS011;41218;55.700;38.270;2023-01-19T14:40:14;26.27;;;9.98;;
55346;SDS011;41218;55.700;38.270;2023-01-19T14:50:33;27.08;;;10.27;;
55346;SDS011;41218;55.700;38.270;2023-01-19T14:55:37;24.65;;;9.52;;
55346;SDS011;41218;55.700;38.270;2023-01-19T15:00:46;27.17;;;10.10;;
55346;SDS011;41218;55.700;38.270;2023-01-19T15:05:47;27.02;;;10.57;;
55346;SDS011;41218;55.700;38.270;2023-01-19T15:10:49;24.75;;;10.30;;
55346;SDS011;41218;55.700;38.270;2023-01-19T15:15:50;26.23;;;9.98;;
55346;SDS011;41218;55.700;38.270;2023-01-19T15:20:53;22.88;;;9.25;;
55346;SDS011;41218;55.700;38.270;2023-01-19T15:25:58;28.85;;;10.45;;
55346;SDS011;41218;55.700;38.270;2023-01-19T15:30:59;24.08;;;9.23;;
55346;SDS011;41218;55.700;38.270;2023-01-19T15:36:00;25.53;;;10.80;;
55346;SDS011;41218;55.700;38.270;2023-01-19T15:41:00;27.47;;;10.70;;
55346;SDS011;41218;55.700;38.270;2023-01-19T15:46:01;26.43;;;9.70;;
55346;SDS011;41218;55.700;38.270;2023-01-19T15:51:01;25.80;;;11.13;;
55346;SDS011;41218;55.700;38.270;2023-01-19T15:56:02;33.77;;;13.17;;
55346;SDS011;41218;55.700;38.270;2023-01-19T16:01:02;31.97;;;12.53;;
55346;SDS011;41218;55.700;38.270;2023-01-19T16:06:03;37.23;;;12.30;;
55346;SDS011;41218;55.700;38.270;2023-01-19T16:11:08;31.37;;;11.73;;
55346;SDS011;41218;55.700;38.270;2023-01-19T16:16:14;37.17;;;13.38;;
55346;SDS011;41218;55.700;38.270;2023-01-19T16:21:17;34.70;;;13.18;;
55346;SDS011;41218;55.700;38.270;2023-01-19T16:26:27;37.73;;;12.53;;
55346;SDS011;41218;55.700;38.270;2023-01-19T16:31:31;43.50;;;14.23;;
55346;SDS011;41218;55.700;38.270;2023-01-19T16:36:32;37.17;;;12.70;;
55346;SDS011;41218;55.700;38.270;2023-01-19T16:41:34;35.50;;;13.32;;
55346;SDS011;41218;55.700;38.270;2023-01-19T16:46:36;38.67;;;13.57;;
55346;SDS011;41218;55.700;38.270;2023-01-19T16:51:39;37.22;;;13.40;;
55346;SDS011;41218;55.700;38.270;2023-01-19T16:56:40;40.97;;;14.57;;
55346;SDS011;41218;55.700;38.270;2023-01-19T17:01:41;38.17;;;12.63;;
55346;SDS011;41218;55.700;38.270;2023-01-19T17:06:44;43.72;;;14.30;;
55346;SDS011;41218;55.700;38.270;2023-01-19T17:11:45;41.40;;;14.38;;
55346;SDS011;41218;55.700;38.270;2023-01-19T17:16:46;44.88;;;14.45;;
55346;SDS011;41218;55.700;38.270;2023-01-19T17:21:47;44.92;;;14.52;;
55346;SDS011;41218;55.700;38.270;2023-01-19T17:26:48;43.42;;;13.15;;
55346;SDS011;41218;55.700;38.270;2023-01-19T17:31:49;54.40;;;15.87;;
55346;SDS011;41218;55.700;38.270;2023-01-19T17:36:50;46.00;;;14.77;;
55346;SDS011;41218;55.700;38.270;2023-01-19T17:41:51;45.37;;;14.50;;
55346;SDS011;41218;55.700;38.270;2023-01-19T17:46:51;48.97;;;14.27;;
55346;SDS011;41218;55.700;38.270;2023-01-19T17:51:52;42.30;;;13.77;;
55346;SDS011;41218;55.700;38.270;2023-01-19T17:56:53;45.88;;;13.60;;
55346;SDS011;41218;55.700;38.270;2023-01-19T18:01:55;38.25;;;12.85;;
55346;SDS011;41218;55.700;38.270;2023-01-19T18:06:55;43.77;;;13.60;;
55346;SDS011;41218;55.700;38.270;2023-01-19T18:11:56;41.45;;;13.57;;
55346;SDS011;41218;55.700;38.270;2023-01-19T18:16:57;41.43;;;13.43;;
55346;SDS011;41218;55.700;38.270;2023-01-19T18:21:58;38.13;;;13.40;;
55346;SDS011;41218;55.700;38.270;2023-01-19T18:26:58;44.53;;;14.13;;
55346;SDS011;41218;55.700;38.270;2023-01-19T18:31:59;44.73;;;15.03;;
55346;SDS011;41218;55.700;38.270;2023-01-19T18:36:59;46.83;;;14.80;;
55346;SDS011;41218;55.700;38.270;2023-01-19T18:42:00;43.80;;;12.57;;
55346;SDS011;41218;55.700;38.270;2023-01-19T18:47:00;44.53;;;13.97;;
55346;SDS011;41218;55.700;38.270;2023-01-19T18:52:01;39.23;;;13.70;;
55346;SDS011;41218;55.700;38.270;2023-01-19T18:57:02;38.60;;;13.13;;
55346;SDS011;41218;55.700;38.270;2023-01-19T19:02:03;38.23;;;13.17;;
55346;SDS011;41218;55.700;38.270;2023-01-19T19:07:05;41.03;;;12.52;;
55346;SDS011;41218;55.700;38.270;2023-01-19T19:12:06;44.53;;;13.17;;
55346;SDS011;41218;55.700;38.270;2023-01-19T19:17:08;45.72;;;13.63;;
55346;SDS011;41218;55.700;38.270;2023-01-19T19:22:09;38.77;;;13.37;;
55346;SDS011;41218;55.700;38.270;2023-01-19T19:27:09;42.23;;;14.00;;
55346;SDS011;41218;55.700;38.270;2023-01-19T19:32:13;45.17;;;14.13;;
55346;SDS011;41218;55.700;38.270;2023-01-19T19:37:15;45.47;;;14.95;;
55346;SDS011;41218;55.700;38.270;2023-01-19T19:42:16;49.57;;;14.60;;
55346;SDS011;41218;55.700;38.270;2023-01-19T19:47:17;46.60;;;14.00;;
55346;SDS011;41218;55.700;38.270;2023-01-19T19:52:17;46.90;;;15.00;;
55346;SDS011;41218;55.700;38.270;2023-01-19T19:57:18;44.30;;;14.73;;
55346;SDS011;41218;55.700;38.270;2023-01-19T20:02:19;41.40;;;14.93;;
55346;SDS011;41218;55.700;38.270;2023-01-19T20:07:19;36.53;;;13.23;;
55346;SDS011;41218;55.700;38.270;2023-01-19T20:12:20;39.97;;;15.10;;
55346;SDS011;41218;55.700;38.270;2023-01-19T20:17:20;51.07;;;14.53;;
55346;SDS011;41218;55.700;38.270;2023-01-19T20:27:22;31.40;;;8.93;;
55346;SDS011;41218;55.700;38.270;2023-01-19T20:32:23;37.20;;;13.37;;
55346;SDS011;41218;55.700;38.270;2023-01-19T20:37:24;46.92;;;15.20;;
55346;SDS011;41218;55.700;38.270;2023-01-19T20:42:24;42.73;;;14.20;;
55346;SDS011;41218;55.700;38.270;2023-01-19T20:47:25;44.23;;;14.90;;
55346;SDS011;41218;55.700;38.270;2023-01-19T20:52:25;38.70;;;14.47;;
55346;SDS011;41218;55.700;38.270;2023-01-19T20:57:26;42.67;;;14.80;;
55346;SDS011;41218;55.700;38.270;2023-01-19T21:02:26;36.33;;;14.00;;
55346;SDS011;41218;55.700;38.270;2023-01-19T21:07:27;44.87;;;14.70;;
55346;SDS011;41218;55.700;38.270;2023-01-19T21:12:27;48.03;;;13.70;;
55346;SDS011;41218;55.700;38.270;2023-01-19T21:17:28;46.93;;;14.60;;
55346;SDS011;41218;55.700;38.270;2023-01-19T21:22:28;41.50;;;13.13;;
55346;SDS011;41218;55.700;38.270;2023-01-19T21:27:29;38.43;;;14.60;;
55346;SDS011;41218;55.700;38.270;2023-01-19T21:32:29;40.93;;;13.90;;
55346;SDS011;41218;55.700;38.270;2023-01-19T21:37:30;47.57;;;14.43;;
55346;SDS011;41218;55.700;38.270;2023-01-19T21:42:30;40.43;;;14.20;;
55346;SDS011;41218;55.700;38.270;2023-01-19T21:47:32;39.60;;;14.70;;
55346;SDS011;41218;55.700;38.270;2023-01-19T21:52:34;46.38;;;15.20;;
55346;SDS011;41218;55.700;38.270;2023-01-19T21:57:34;37.97;;;14.87;;
55346;SDS011;41218;55.700;38.270;2023-01-19T22:02:35;45.43;;;14.43;;
55346;SDS011;41218;55.700;38.270;2023-01-19T22:07:36;41.70;;;15.30;;
55346;SDS011;41218;55.700;38.270;2023-01-19T22:12:52;36.90;;;14.38;;
55346;SDS011;41218;55.700;38.270;2023-01-19T22:17:52;36.80;;;13.70;;
55346;SDS011;41218;55.700;38.270;2023-01-19T22:22:54;45.33;;;13.50;;
55346;SDS011;41218;55.700;38.270;2023-01-19T22:27:55;40.92;;;13.50;;
55346;SDS011;41218;55.700;38.270;2023-01-19T22:32:57;45.83;;;14.05;;
55346;SDS011;41218;55.700;38.270;2023-01-19T22:37:58;33.53;;;13.03;;
55346;SDS011;41218;55.700;38.270;2023-01-19T22:42:58;48.20;;;14.33;;
55346;SDS011;41218;55.700;38.270;2023-01-19T22:47:59;38.73;;;13.70;;
55346;SDS011;41218;55.700;38.270;2023-01-19T22:52:59;37.13;;;14.63;;
55346;SDS011;41218;55.700;38.270;2023-01-19T22:58:00;33.23;;;13.07;;
55346;SDS011;41218;55.700;38.270;2023-01-19T23:03:00;41.50;;;13.83;;
55346;SDS011;41218;55.700;38.270;2023-01-19T23:08:01;40.10;;;12.53;;
55346;SDS011;41218;55.700;38.270;2023-01-19T23:13:01;36.93;;;12.40;;
55346;SDS011;41218;55.700;38.270;2023-01-19T23:18:02;35.17;;;11.83;;
55346;SDS011;41218;55.700;38.270;2023-01-19T23:23:02;39.60;;;11.93;;
55346;SDS011;41218;55.700;38.270;2023-01-19T23:28:03;36.03;;;12.63;;
55346;SDS011;41218;55.700;38.270;2023-01-19T23:33:04;38.07;;;12.53;;
55346;SDS011;41218;55.700;38.270;2023-01-19T23:38:04;39.97;;;12.40;;
55346;SDS011;41218;55.700;38.270;2023-01-19T23:43:05;42.40;;;13.27;;
55346;SDS011;41218;55.700;38.270;2023-01-19T23:48:05;35.73;;;12.17;;
55346;SDS011;41218;55.700;38.270;2023-01-19T23:53:06;38.77;;;13.33;;
55346;SDS011;41218;55.700;38.270;2023-01-19T23:58:07;41.63;;;13.23;;
